Time;durP1;ratioP1;P1;durP2;ratioP2;P2;SDS_P1;SDS_P2;PMS_P1;PMS_P2;Temp;Humidity;BMP_temperature;BMP_pressure;BME280_temperature;BME280_humidity;BME280_pressure;Samples;Min_cycle;Max_cycle;Signal;HPM_P1;HPM_P2
2022/10/23 00:00:13;;;;;;;15.07;3.63;;;12.40;99.90;;;;;;4997892;28;20663;-62
2022/10/23 00:02:40;;;;;;;14.15;3.78;;;12.40;99.90;;;;;;4977705;28;20675;-62
2022/10/23 00:05:07;;;;;;;8.15;3.42;;;12.40;99.90;;;;;;5007112;28;20209;-62
2022/10/23 00:07:34;;;;;;;4.38;3.60;;;12.40;99.90;;;;;;4996519;28;20225;-62
2022/10/23 00:10:01;;;;;;;8.95;4.00;;;12.40;99.90;;;;;;5018536;28;20229;-62
2022/10/23 00:12:29;;;;;;;12.95;3.60;;;12.30;99.90;;;;;;5005697;28;20801;-62
2022/10/23 00:14:56;;;;;;;7.07;3.67;;;12.40;99.90;;;;;;4964278;28;20208;-62
2022/10/23 00:17:23;;;;;;;10.65;3.45;;;12.40;99.90;;;;;;5005016;28;20206;-62
2022/10/23 00:19:50;;;;;;;6.07;4.15;;;12.30;99.90;;;;;;4996175;28;20204;-62
2022/10/23 00:22:17;;;;;;;9.98;3.67;;;12.30;99.90;;;;;;5001257;28;20201;-62
2022/10/23 00:24:44;;;;;;;8.32;3.83;;;12.30;99.90;;;;;;5011135;28;20229;-62
2022/10/23 00:27:11;;;;;;;15.90;4.40;;;12.30;99.90;;;;;;5005454;28;20217;-62
2022/10/23 00:29:39;;;;;;;14.10;4.05;;;12.30;99.90;;;;;;4969974;28;20795;-63
2022/10/23 00:32:06;;;;;;;14.40;4.10;;;12.30;99.90;;;;;;5015962;28;20220;-62
2022/10/23 00:34:32;;;;;;;11.70;4.18;;;12.20;99.90;;;;;;5001468;28;20722;-62
2022/10/23 00:36:59;;;;;;;8.15;4.03;;;12.20;99.90;;;;;;5005327;28;20872;-62
2022/10/23 00:39:26;;;;;;;9.77;4.18;;;12.20;99.90;;;;;;4999217;28;20206;-62
2022/10/23 00:41:53;;;;;;;14.07;3.95;;;12.20;99.90;;;;;;5006672;28;20217;-62
2022/10/23 00:44:57;;;;;;;5.00;3.83;;;12.20;99.90;;;;;;4985947;28;20205;-62
2022/10/23 00:47:25;;;;;;;7.47;3.90;;;12.20;99.90;;;;;;5003120;28;20216;-62
2022/10/23 00:49:52;;;;;;;5.38;4.07;;;12.20;99.90;;;;;;5000928;28;20233;-63
2022/10/23 00:52:19;;;;;;;7.05;3.80;;;12.20;99.90;;;;;;4991321;28;20216;-62
2022/10/23 00:54:48;;;;;;;6.30;3.22;;;12.10;99.90;;;;;;5016384;28;20423;-63
2022/10/23 00:57:15;;;;;;;15.93;3.67;;;12.10;99.90;;;;;;4998907;28;20592;-62
2022/10/23 00:59:42;;;;;;;7.47;3.63;;;12.10;99.90;;;;;;4980430;28;20344;-63
2022/10/23 01:02:09;;;;;;;9.93;4.00;;;12.10;99.90;;;;;;5002340;28;20803;-63
2022/10/23 01:04:38;;;;;;;9.15;4.40;;;12.10;99.90;;;;;;4995969;28;20201;-62
2022/10/23 01:07:11;;;;;;;28.05;5.35;;;12.10;99.90;;;;;;5011262;28;20206;-62
2022/10/23 01:09:42;;;;;;;13.35;3.95;;;12.00;99.90;;;;;;5011408;28;20245;-62
2022/10/23 01:12:16;;;;;;;18.63;4.82;;;12.10;99.90;;;;;;5003103;28;20233;-62
2022/10/23 01:14:50;;;;;;;18.02;4.63;;;12.10;99.90;;;;;;4975291;28;20851;-62
2022/10/23 01:17:24;;;;;;;11.02;4.47;;;12.10;99.90;;;;;;5009107;28;20584;-62
2022/10/23 01:20:05;;;;;;;5.90;4.97;;;12.10;99.90;;;;;;5014705;28;20200;-62
2022/10/23 01:22:48;;;;;;;6.10;4.18;;;12.10;99.90;;;;;;5003369;28;24073;-62
2022/10/23 01:25:27;;;;;;;14.98;4.57;;;12.10;99.90;;;;;;4997906;28;20572;-62
2022/10/23 01:27:59;;;;;;;17.38;5.25;;;12.10;99.90;;;;;;4998397;28;20208;-62
2022/10/23 01:30:26;;;;;;;4.53;3.88;;;12.10;99.90;;;;;;4955192;28;20222;-62
2022/10/23 01:32:58;;;;;;;13.88;4.40;;;12.10;99.90;;;;;;5015249;28;20208;-63
2022/10/23 01:35:29;;;;;;;5.72;4.40;;;12.00;99.90;;;;;;4998159;28;20202;-62
2022/10/23 01:38:01;;;;;;;6.00;4.15;;;12.10;99.90;;;;;;4982673;28;20577;-62
2022/10/23 01:40:34;;;;;;;7.85;3.97;;;12.10;99.90;;;;;;4990149;28;20202;-62
2022/10/23 01:43:08;;;;;;;8.50;4.03;;;12.10;99.90;;;;;;5007841;28;20201;-62
2022/10/23 01:45:41;;;;;;;6.63;4.43;;;12.30;99.90;;;;;;4965725;28;27343;-63
2022/10/23 01:48:10;;;;;;;8.43;3.78;;;12.10;99.90;;;;;;5019696;28;20664;-62
2022/10/23 01:50:39;;;;;;;7.20;3.78;;;12.10;99.90;;;;;;4980816;28;20222;-62
2022/10/23 01:53:06;;;;;;;4.18;3.28;;;12.10;99.90;;;;;;4992933;28;20198;-62
2022/10/23 01:55:33;;;;;;;7.18;3.70;;;12.00;99.90;;;;;;5001218;28;20596;-62
2022/10/23 01:58:02;;;;;;;6.85;3.38;;;12.00;99.90;;;;;;4992064;28;20775;-62
2022/10/23 02:00:31;;;;;;;9.00;3.30;;;12.00;99.90;;;;;;5003576;28;20483;-62
2022/10/23 02:02:58;;;;;;;7.38;3.28;;;12.00;99.90;;;;;;4985381;28;20217;-62
2022/10/23 02:05:28;;;;;;;4.03;3.20;;;11.90;99.90;;;;;;4992501;28;20233;-62
2022/10/23 02:07:55;;;;;;;5.05;3.75;;;11.90;99.90;;;;;;5016668;28;20313;-62
2022/10/23 02:10:30;;;;;;;8.30;3.30;;;11.90;99.90;;;;;;4988687;28;20616;-62
2022/10/23 02:13:02;;;;;;;6.13;2.80;;;11.70;99.90;;;;;;5004955;28;20229;-62
2022/10/23 02:15:36;;;;;;;8.85;3.05;;;11.70;99.90;;;;;;4994279;28;20947;-62
2022/10/23 02:18:08;;;;;;;9.07;3.35;;;11.70;99.90;;;;;;4985420;28;20411;-62
2022/10/23 02:20:39;;;;;;;4.75;3.30;;;11.60;99.90;;;;;;4967911;28;21044;-62
2022/10/23 02:23:16;;;;;;;6.68;3.35;;;11.60;99.90;;;;;;5016975;28;20202;-62
2022/10/23 02:25:51;;;;;;;5.70;3.75;;;11.50;99.90;;;;;;4999386;28;20945;-62
2022/10/23 02:28:23;;;;;;;12.02;3.70;;;11.40;99.90;;;;;;4990885;28;20654;-62
2022/10/23 02:30:52;;;;;;;5.00;3.45;;;11.40;99.90;;;;;;5004467;28;20229;-62
2022/10/23 02:33:20;;;;;;;4.90;4.03;;;11.40;99.90;;;;;;4984777;28;20217;-62
2022/10/23 02:35:48;;;;;;;16.40;3.88;;;11.40;99.90;;;;;;4992550;28;20661;-62
2022/10/23 02:38:30;;;;;;;11.65;4.05;;;11.40;99.90;;;;;;5014300;28;20202;-62
2022/10/23 02:41:03;;;;;;;17.05;4.72;;;11.40;99.90;;;;;;4987471;28;20210;-62
2022/10/23 02:43:37;;;;;;;20.45;4.93;;;11.40;99.90;;;;;;5012686;28;20224;-62
2022/10/23 02:46:14;;;;;;;14.65;4.30;;;11.40;99.90;;;;;;4990253;28;20951;-63
2022/10/23 02:48:47;;;;;;;18.05;4.78;;;11.40;99.90;;;;;;4964079;28;21408;-62
2022/10/23 02:51:22;;;;;;;14.70;4.63;;;11.40;99.90;;;;;;4996734;28;20221;-62
2022/10/23 02:53:55;;;;;;;11.13;5.22;;;11.40;99.90;;;;;;5013219;28;20197;-62
2022/10/23 02:56:31;;;;;;;13.82;4.85;;;11.40;99.90;;;;;;4994349;28;20209;-62
2022/10/23 02:59:06;;;;;;;15.02;4.70;;;11.40;99.90;;;;;;5016229;28;20194;-62
2022/10/23 03:01:39;;;;;;;10.55;5.05;;;11.40;99.90;;;;;;4993339;28;20204;-62
2022/10/23 03:04:08;;;;;;;15.70;5.40;;;11.30;99.90;;;;;;4986771;28;20221;-62
2022/10/23 03:06:35;;;;;;;17.58;5.40;;;11.40;99.90;;;;;;4982750;28;20210;-63
2022/10/23 03:09:05;;;;;;;9.60;5.72;;;11.30;99.90;;;;;;5000825;28;20208;-62
2022/10/23 03:11:32;;;;;;;13.73;4.93;;;11.30;99.90;;;;;;4993318;28;20666;-62
2022/10/23 03:13:59;;;;;;;15.73;5.65;;;11.30;99.90;;;;;;5006098;28;21128;-62
2022/10/23 03:16:26;;;;;;;12.38;5.82;;;11.40;99.90;;;;;;5019386;28;20759;-62
2022/10/23 03:18:55;;;;;;;10.52;5.47;;;11.50;99.90;;;;;;5010755;28;20202;-62
2022/10/23 03:21:22;;;;;;;8.93;6.18;;;11.60;99.90;;;;;;4960400;28;20275;-62
2022/10/23 03:23:49;;;;;;;9.50;5.50;;;11.60;99.90;;;;;;5014626;28;20203;-62
2022/10/23 03:26:16;;;;;;;7.80;5.50;;;11.50;99.90;;;;;;5004914;28;21245;-62
2022/10/23 03:28:43;;;;;;;13.82;5.65;;;11.40;99.90;;;;;;5018186;28;20521;-62
2022/10/23 03:31:10;;;;;;;9.30;5.32;;;11.50;99.90;;;;;;4999136;28;20230;-61
2022/10/23 03:33:37;;;;;;;10.25;5.50;;;11.50;99.90;;;;;;4995879;28;20726;-62
2022/10/23 03:36:05;;;;;;;10.05;5.22;;;11.50;99.90;;;;;;4974698;28;20220;-62
2022/10/23 03:38:32;;;;;;;10.30;5.10;;;11.50;99.90;;;;;;4984459;28;20703;-62
2022/10/23 03:40:59;;;;;;;8.45;5.95;;;11.50;99.90;;;;;;5016325;28;20206;-62
2022/10/23 03:43:26;;;;;;;9.43;5.88;;;11.60;99.90;;;;;;5000938;28;20213;-62
2022/10/23 03:45:53;;;;;;;9.20;5.90;;;11.50;99.90;;;;;;4998034;28;20206;-62
2022/10/23 03:48:20;;;;;;;8.20;5.45;;;11.40;99.90;;;;;;4989626;28;20205;-62
2022/10/23 03:50:47;;;;;;;22.13;6.10;;;11.50;99.90;;;;;;4990695;28;20589;-62
2022/10/23 03:53:15;;;;;;;15.32;5.60;;;11.60;99.90;;;;;;5001033;28;20217;-62
2022/10/23 03:55:43;;;;;;;10.35;6.05;;;11.70;99.90;;;;;;5007723;28;20198;-62
2022/10/23 03:58:10;;;;;;;16.63;6.45;;;11.80;99.90;;;;;;4994492;28;20224;-62
2022/10/23 04:00:37;;;;;;;8.07;5.88;;;11.80;99.90;;;;;;5016329;28;20220;-62
2022/10/23 04:03:04;;;;;;;9.38;6.50;;;11.80;99.90;;;;;;5013636;28;20668;-62
2022/10/23 04:05:31;;;;;;;13.15;5.93;;;11.80;99.90;;;;;;4977947;28;20642;-62
2022/10/23 04:07:57;;;;;;;8.20;5.75;;;11.90;99.90;;;;;;5008101;28;20210;-62
2022/10/23 04:10:26;;;;;;;11.07;6.05;;;11.80;99.90;;;;;;5003759;28;20956;-62
2022/10/23 04:12:52;;;;;;;15.27;5.82;;;11.80;99.90;;;;;;5010739;28;20225;-62
2022/10/23 04:15:19;;;;;;;13.93;5.85;;;11.80;99.90;;;;;;4997221;28;20386;-62
2022/10/23 04:17:46;;;;;;;10.10;5.90;;;11.80;99.90;;;;;;5017140;28;20197;-63
2022/10/23 04:20:13;;;;;;;7.40;5.40;;;11.70;99.90;;;;;;4990416;28;20193;-62
2022/10/23 04:22:39;;;;;;;11.98;5.72;;;11.60;99.90;;;;;;4987171;28;20221;-62
2022/10/23 04:25:06;;;;;;;9.82;6.30;;;11.60;99.90;;;;;;4993536;28;20237;-62
2022/10/23 04:27:35;;;;;;;11.98;6.22;;;11.70;99.90;;;;;;5005410;28;20502;-62
2022/10/23 04:30:02;;;;;;;18.23;6.13;;;11.80;99.90;;;;;;5001939;28;20233;-62
2022/10/23 04:32:30;;;;;;;8.02;5.60;;;11.70;99.90;;;;;;5015780;28;20310;-63
2022/10/23 04:34:56;;;;;;;10.30;5.35;;;11.70;99.90;;;;;;4998866;28;20225;-62
2022/10/23 04:37:23;;;;;;;8.05;5.22;;;11.60;99.90;;;;;;4983031;28;20221;-62
2022/10/23 04:39:50;;;;;;;8.52;5.47;;;11.50;99.90;;;;;;5010129;28;20202;-62
2022/10/23 04:42:17;;;;;;;18.15;5.93;;;11.50;99.90;;;;;;4975592;28;20740;-62
2022/10/23 04:44:45;;;;;;;13.13;5.50;;;11.50;99.90;;;;;;5000163;28;20335;-62
2022/10/23 04:47:12;;;;;;;9.70;5.22;;;11.50;99.90;;;;;;5020618;28;20201;-62
2022/10/23 04:49:38;;;;;;;13.30;5.55;;;11.50;99.90;;;;;;4978055;28;20550;-62
2022/10/23 04:52:05;;;;;;;11.65;5.55;;;11.50;99.90;;;;;;4987109;28;20225;-62
2022/10/23 04:54:36;;;;;;;14.18;5.47;;;11.50;99.90;;;;;;5005586;28;20596;-62
2022/10/23 04:57:03;;;;;;;7.28;5.50;;;11.50;99.90;;;;;;4980103;28;20209;-62
2022/10/23 04:59:30;;;;;;;17.80;5.88;;;11.40;99.90;;;;;;5004915;28;20343;-62
2022/10/23 05:01:58;;;;;;;10.82;5.60;;;11.30;99.90;;;;;;5015267;28;20949;-62
2022/10/23 05:04:25;;;;;;;12.80;6.22;;;11.40;99.90;;;;;;5009811;28;20672;-63
2022/10/23 05:06:52;;;;;;;11.80;5.88;;;11.60;99.90;;;;;;5003386;28;20205;-62
2022/10/23 05:09:18;;;;;;;11.88;5.32;;;11.50;99.90;;;;;;4981733;28;20221;-62
2022/10/23 05:11:45;;;;;;;9.70;6.43;;;11.60;99.90;;;;;;4994041;28;20241;-62
2022/10/23 05:14:12;;;;;;;9.57;5.85;;;11.40;99.90;;;;;;5020032;28;20194;-63
2022/10/23 05:16:44;;;;;;;7.22;5.28;;;11.50;99.90;;;;;;5000970;28;20224;-62
2022/10/23 05:19:18;;;;;;;8.85;5.28;;;11.50;99.90;;;;;;5016712;28;20197;-62
2022/10/23 05:21:46;;;;;;;9.25;4.45;;;11.50;99.90;;;;;;5017352;28;20312;-61
2022/10/23 05:24:13;;;;;;;5.43;4.28;;;11.40;99.90;;;;;;4973540;28;20207;-62
2022/10/23 05:26:40;;;;;;;7.45;4.93;;;11.30;99.90;;;;;;4989988;28;20233;-63
2022/10/23 05:29:07;;;;;;;6.95;4.63;;;11.20;99.90;;;;;;5001253;28;20216;-62
2022/10/23 05:31:35;;;;;;;11.35;5.32;;;11.20;99.90;;;;;;4980374;28;20639;-62
2022/10/23 05:34:02;;;;;;;6.10;4.40;;;11.20;99.90;;;;;;5015674;28;20202;-62
2022/10/23 05:36:31;;;;;;;6.85;4.20;;;11.20;99.90;;;;;;5015138;28;20486;-62
2022/10/23 05:38:58;;;;;;;6.68;4.93;;;11.20;99.90;;;;;;5001538;28;20206;-62
2022/10/23 05:41:25;;;;;;;6.43;4.28;;;11.20;99.90;;;;;;4975643;28;20254;-63
2022/10/23 05:43:53;;;;;;;5.72;3.85;;;11.20;99.90;;;;;;4990587;28;20208;-62
2022/10/23 05:46:21;;;;;;;7.70;4.53;;;11.20;99.90;;;;;;4993806;28;20450;-62
2022/10/23 05:48:50;;;;;;;14.18;4.40;;;11.20;99.90;;;;;;5002336;28;20741;-62
2022/10/23 05:51:20;;;;;;;5.95;4.63;;;11.20;99.90;;;;;;5011441;28;20834;-62
2022/10/23 05:53:49;;;;;;;6.97;4.63;;;11.10;99.90;;;;;;5021122;28;20197;-62
2022/10/23 05:56:16;;;;;;;10.93;5.30;;;11.20;99.90;;;;;;4978708;28;20498;-62
2022/10/23 05:58:43;;;;;;;8.73;4.85;;;11.40;99.90;;;;;;5003457;28;20464;-62
2022/10/23 06:01:12;;;;;;;17.63;6.82;;;11.40;99.90;;;;;;4972941;28;20205;-62
2022/10/23 06:03:40;;;;;;;9.18;6.15;;;11.50;99.90;;;;;;4974577;28;20201;-62
2022/10/23 06:06:07;;;;;;;17.65;7.53;;;11.50;99.90;;;;;;4994659;28;20209;-62
2022/10/23 06:08:34;;;;;;;10.35;5.70;;;11.50;99.90;;;;;;5002239;28;20212;-62
2022/10/23 06:11:07;;;;;;;10.45;6.07;;;11.50;99.90;;;;;;4980101;28;20334;-62
2022/10/23 06:13:35;;;;;;;23.38;6.40;;;11.50;99.90;;;;;;4982955;28;20616;-62
2022/10/23 06:16:08;;;;;;;18.20;6.43;;;11.50;99.90;;;;;;4957321;28;20206;-62
2022/10/23 06:18:35;;;;;;;13.93;6.40;;;11.50;99.90;;;;;;4977536;28;20778;-62
2022/10/23 06:21:02;;;;;;;14.40;7.18;;;11.60;99.90;;;;;;4975818;28;20256;-62
2022/10/23 06:23:31;;;;;;;9.35;5.97;;;11.60;99.90;;;;;;4959575;28;20230;-62
2022/10/23 06:25:58;;;;;;;12.68;5.95;;;11.60;99.90;;;;;;4963060;28;20221;-62
2022/10/23 06:28:26;;;;;;;13.15;6.32;;;11.60;99.90;;;;;;4991167;28;20205;-62
2022/10/23 06:30:53;;;;;;;15.70;6.13;;;11.50;99.90;;;;;;4974520;28;20233;-62
2022/10/23 06:33:20;;;;;;;9.63;6.07;;;11.50;99.90;;;;;;4969267;28;20659;-62
2022/10/23 06:35:46;;;;;;;12.98;6.03;;;11.40;99.90;;;;;;4995842;28;20485;-62
2022/10/23 06:38:14;;;;;;;14.35;5.63;;;11.50;99.90;;;;;;4962718;28;20205;-62
2022/10/23 06:40:41;;;;;;;17.10;6.00;;;11.50;99.90;;;;;;4977206;28;20206;-63
2022/10/23 06:43:08;;;;;;;11.02;5.95;;;11.50;99.90;;;;;;4961345;28;20206;-62
2022/10/23 06:45:36;;;;;;;12.52;6.03;;;11.40;99.90;;;;;;4981415;28;20970;-62
2022/10/23 06:48:03;;;;;;;10.07;6.13;;;11.60;99.90;;;;;;4967060;28;20206;-62
2022/10/23 06:50:30;;;;;;;9.05;5.30;;;11.60;99.90;;;;;;4999205;28;20761;-63
2022/10/23 06:52:57;;;;;;;9.35;5.63;;;11.60;99.90;;;;;;4994737;28;20225;-62
2022/10/23 06:55:24;;;;;;;12.93;6.22;;;11.60;99.90;;;;;;4966337;28;20254;-62
2022/10/23 06:57:51;;;;;;;8.50;6.18;;;11.60;99.90;;;;;;4939073;28;20218;-62
2022/10/23 07:00:20;;;;;;;9.68;6.53;;;11.60;99.90;;;;;;4977331;28;20684;-62
2022/10/23 07:02:48;;;;;;;13.48;6.10;;;11.70;99.90;;;;;;4972903;28;20438;-62
2022/10/23 07:05:15;;;;;;;8.60;6.40;;;11.70;99.90;;;;;;4989571;28;20210;-62
2022/10/23 07:07:42;;;;;;;9.02;6.07;;;11.70;99.90;;;;;;4989156;28;20209;-62
2022/10/23 07:10:09;;;;;;;10.32;6.35;;;11.70;99.90;;;;;;4982135;28;20203;-62
2022/10/23 07:12:36;;;;;;;12.57;6.07;;;11.80;99.90;;;;;;4979201;28;20233;-62
2022/10/23 07:15:03;;;;;;;10.15;5.65;;;11.80;99.90;;;;;;4994339;28;20778;-62
2022/10/23 07:17:29;;;;;;;7.95;5.70;;;11.90;99.90;;;;;;4989170;28;20236;-62
2022/10/23 07:19:57;;;;;;;7.00;5.88;;;11.90;99.90;;;;;;5004916;28;20408;-62
2022/10/23 07:22:24;;;;;;;9.10;6.05;;;12.00;99.90;;;;;;5013028;28;20672;-62
2022/10/23 07:24:51;;;;;;;14.65;6.15;;;11.90;99.90;;;;;;4997393;28;20206;-62
2022/10/23 07:27:18;;;;;;;8.73;5.53;;;12.00;99.90;;;;;;4994277;28;20384;-62
2022/10/23 07:29:45;;;;;;;13.40;6.07;;;12.00;99.90;;;;;;4962999;28;20600;-62
2022/10/23 07:32:11;;;;;;;9.88;5.40;;;12.10;99.90;;;;;;4998464;28;20232;-62
2022/10/23 07:34:38;;;;;;;7.88;5.18;;;12.20;99.90;;;;;;4985972;28;20233;-62
2022/10/23 07:37:06;;;;;;;11.90;5.88;;;12.20;99.90;;;;;;5013699;28;20189;-62
2022/10/23 07:39:33;;;;;;;6.80;4.85;;;12.20;99.90;;;;;;4999657;28;20213;-62
2022/10/23 07:42:00;;;;;;;7.18;5.30;;;12.30;99.90;;;;;;4982054;28;21212;-62
2022/10/23 07:44:27;;;;;;;11.43;5.35;;;12.40;99.90;;;;;;4980083;28;20818;-62
2022/10/23 07:46:53;;;;;;;9.70;4.90;;;12.40;99.90;;;;;;5001756;28;20318;-62
2022/10/23 07:49:20;;;;;;;9.80;5.00;;;12.40;99.90;;;;;;4980388;28;20198;-62
2022/10/23 07:51:47;;;;;;;15.55;5.15;;;12.50;99.90;;;;;;4981870;28;20229;-62
2022/10/23 07:54:15;;;;;;;16.33;5.53;;;12.50;99.90;;;;;;5015283;28;20205;-62
2022/10/23 07:56:42;;;;;;;11.52;5.20;;;12.50;99.90;;;;;;4995410;28;20229;-62
2022/10/23 07:59:12;;;;;;;9.80;5.10;;;12.60;99.90;;;;;;4972714;28;20722;-62
2022/10/23 08:01:39;;;;;;;13.35;5.22;;;12.60;99.90;;;;;;5004421;28;20228;-62
2022/10/23 08:04:06;;;;;;;6.88;4.22;;;12.70;99.90;;;;;;4996849;28;20212;-62
2022/10/23 08:06:34;;;;;;;9.98;4.32;;;12.70;99.90;;;;;;4991615;28;20682;-62
2022/10/23 08:09:01;;;;;;;18.38;5.00;;;12.70;99.90;;;;;;4994684;28;21923;-62
2022/10/23 08:11:34;;;;;;;14.20;4.40;;;12.80;99.90;;;;;;5017713;28;20241;-62
2022/10/23 08:14:03;;;;;;;11.25;4.03;;;12.90;99.90;;;;;;4966663;28;20206;-63
2022/10/23 08:16:30;;;;;;;5.57;3.97;;;12.90;99.90;;;;;;5015918;28;20218;-62
2022/10/23 08:18:57;;;;;;;9.05;4.00;;;13.00;99.90;;;;;;4993034;28;20335;-62
2022/10/23 08:21:24;;;;;;;7.15;4.18;;;13.00;99.90;;;;;;4989978;28;20205;-62
2022/10/23 08:23:53;;;;;;;6.93;4.30;;;13.00;99.90;;;;;;4991094;28;20236;-62
2022/10/23 08:26:20;;;;;;;6.32;4.28;;;13.10;99.90;;;;;;5002123;28;20743;-62
2022/10/23 08:28:48;;;;;;;10.52;4.85;;;13.10;99.90;;;;;;4977154;28;20704;-62
2022/10/23 08:31:17;;;;;;;5.65;4.28;;;13.10;99.90;;;;;;4984763;28;20217;-62
2022/10/23 08:33:44;;;;;;;10.25;4.80;;;13.20;99.90;;;;;;4988572;28;20232;-62
2022/10/23 08:36:17;;;;;;;8.77;5.80;;;13.20;99.90;;;;;;4995532;28;20784;-62
2022/10/23 08:38:44;;;;;;;11.07;5.70;;;13.30;99.90;;;;;;4996489;28;20300;-62
2022/10/23 08:41:22;;;;;;;13.57;5.63;;;13.30;99.90;;;;;;4981772;28;20229;-62
2022/10/23 08:43:54;;;;;;;9.25;5.35;;;13.30;99.90;;;;;;4990226;28;20854;-62
2022/10/23 08:46:26;;;;;;;14.88;5.18;;;13.40;99.90;;;;;;4977051;28;20233;-62
2022/10/23 08:48:57;;;;;;;14.95;5.20;;;13.40;99.90;;;;;;4992252;28;20374;-63
2022/10/23 08:51:34;;;;;;;10.57;4.38;;;13.40;99.90;;;;;;4994986;28;20201;-62
2022/10/23 08:54:07;;;;;;;10.63;3.97;;;13.40;99.90;;;;;;4973903;28;20635;-62
2022/10/23 08:56:37;;;;;;;9.63;4.38;;;13.40;99.90;;;;;;4984897;28;20571;-62
2022/10/23 08:59:13;;;;;;;9.98;4.65;;;13.50;99.90;;;;;;5017927;28;20209;-62
2022/10/23 09:01:43;;;;;;;8.20;4.47;;;13.50;99.90;;;;;;4936233;28;20218;-62
2022/10/23 09:04:12;;;;;;;10.23;4.53;;;13.50;99.90;;;;;;5011384;28;20202;-62
2022/10/23 09:06:47;;;;;;;23.88;4.80;;;13.60;99.90;;;;;;4973890;28;21103;-62
2022/10/23 09:09:53;;;;;;;7.70;4.03;;;13.70;99.90;;;;;;5000190;28;20201;-62
2022/10/23 09:12:22;;;;;;;5.10;3.90;;;13.70;99.90;;;;;;4951726;28;20235;-62
2022/10/23 09:15:10;;;;;;;4.75;3.85;;;13.80;99.90;;;;;;4981233;28;20202;-63
2022/10/23 09:17:39;;;;;;;11.00;4.70;;;13.70;99.90;;;;;;4959273;28;20308;-62
2022/10/23 09:20:18;;;;;;;12.10;4.32;;;13.80;99.90;;;;;;4991393;28;20388;-63
2022/10/23 09:22:45;;;;;;;9.30;3.97;;;13.80;99.90;;;;;;4983744;28;21061;-62
2022/10/23 09:25:18;;;;;;;8.90;4.85;;;13.90;99.90;;;;;;4970198;28;20619;-62
2022/10/23 09:27:47;;;;;;;9.40;3.97;;;13.90;99.90;;;;;;5003124;28;22463;-62
2022/10/23 09:30:28;;;;;;;10.82;4.72;;;14.00;99.90;;;;;;4993310;28;20389;-62
2022/10/23 09:32:55;;;;;;;11.05;4.10;;;14.00;99.90;;;;;;4941990;28;20236;-62
2022/10/23 09:35:24;;;;;;;11.90;4.38;;;14.00;99.90;;;;;;4984466;28;20209;-62
2022/10/23 09:37:52;;;;;;;7.22;3.92;;;14.10;99.90;;;;;;4995238;28;20213;-63
2022/10/23 09:40:27;;;;;;;10.73;4.70;;;14.10;99.90;;;;;;4990355;28;20212;-62
2022/10/23 09:42:57;;;;;;;15.35;4.40;;;14.10;99.90;;;;;;4985793;28;20885;-63
2022/10/23 09:45:28;;;;;;;16.80;3.80;;;14.20;99.90;;;;;;5011609;28;20253;-63
2022/10/23 09:48:16;;;;;;;11.70;4.22;;;14.20;99.90;;;;;;4947005;28;20206;-63
2022/10/23 09:50:50;;;;;;;6.07;4.28;;;14.20;99.90;;;;;;4997288;28;20763;-62
2022/10/23 09:53:22;;;;;;;10.07;3.92;;;14.30;99.90;;;;;;4999817;28;20240;-63
2022/10/23 09:55:54;;;;;;;7.40;4.28;;;14.30;99.90;;;;;;4973497;28;20205;-62
2022/10/23 09:58:27;;;;;;;14.32;4.38;;;14.30;99.90;;;;;;4995301;28;20206;-62
2022/10/23 10:00:55;;;;;;;12.98;4.38;;;14.30;99.90;;;;;;4989422;28;20218;-62
2022/10/23 10:03:23;;;;;;;13.43;4.10;;;14.40;99.90;;;;;;4975073;28;20208;-63
2022/10/23 10:05:59;;;;;;;6.65;3.55;;;14.40;99.90;;;;;;4992583;28;20209;-62
2022/10/23 10:08:43;;;;;;;13.20;4.47;;;14.40;99.90;;;;;;4983485;28;20354;-63
2022/10/23 10:11:16;;;;;;;7.30;4.30;;;14.50;99.90;;;;;;5001563;28;20503;-62
2022/10/23 10:14:01;;;;;;;6.65;3.90;;;14.50;99.90;;;;;;5005546;28;20918;-63
2022/10/23 10:16:39;;;;;;;12.82;4.10;;;14.50;99.90;;;;;;5008062;28;20208;-62
2022/10/23 10:19:18;;;;;;;7.78;3.58;;;14.50;99.90;;;;;;4958413;28;20224;-63
2022/10/23 10:21:52;;;;;;;7.53;4.20;;;14.50;99.90;;;;;;5002297;28;20197;-62
2022/10/23 10:24:25;;;;;;;7.75;3.78;;;14.50;99.90;;;;;;4973756;28;20797;-63
2022/10/23 10:27:00;;;;;;;4.90;3.70;;;14.50;99.90;;;;;;4969050;28;20356;-63
2022/10/23 10:29:48;;;;;;;8.63;4.32;;;14.50;99.90;;;;;;5010704;28;20208;-63
2022/10/23 10:32:30;;;;;;;5.20;3.72;;;14.60;99.90;;;;;;4991607;28;20366;-63
2022/10/23 10:35:04;;;;;;;7.88;4.40;;;14.60;99.90;;;;;;4956908;28;20713;-63
2022/10/23 10:37:46;;;;;;;5.85;3.50;;;14.60;99.90;;;;;;5011926;28;20201;-62
2022/10/23 10:40:23;;;;;;;17.08;4.28;;;14.60;99.90;;;;;;4984775;28;20548;-62
2022/10/23 10:43:05;;;;;;;8.88;3.85;;;14.60;99.90;;;;;;4978974;28;20884;-62
2022/10/23 10:45:37;;;;;;;8.38;3.88;;;14.60;99.90;;;;;;5022215;28;20204;-62
2022/10/23 10:48:23;;;;;;;9.68;4.35;;;14.60;99.90;;;;;;4966279;28;20758;-63
2022/10/23 10:50:55;;;;;;;7.60;3.70;;;14.70;99.90;;;;;;4985913;28;20205;-62
2022/10/23 10:53:31;;;;;;;5.47;3.70;;;14.80;99.90;;;;;;5004873;28;20232;-63
2022/10/23 10:56:00;;;;;;;6.63;3.90;;;14.80;99.90;;;;;;4973006;28;20489;-63
2022/10/23 10:58:36;;;;;;;15.43;3.90;;;14.90;99.90;;;;;;4982509;28;20665;-63
2022/10/23 11:01:10;;;;;;;6.78;3.72;;;14.90;99.90;;;;;;5009066;28;20419;-63
2022/10/23 11:03:43;;;;;;;9.45;4.25;;;15.00;99.90;;;;;;4983802;28;20291;-63
2022/10/23 11:06:16;;;;;;;12.98;3.95;;;15.00;99.90;;;;;;4987937;28;20202;-63
2022/10/23 11:08:43;;;;;;;11.32;3.85;;;15.00;99.90;;;;;;4999657;28;20367;-63
2022/10/23 11:11:17;;;;;;;20.35;4.43;;;15.10;99.90;;;;;;4996265;28;20540;-63
2022/10/23 11:13:44;;;;;;;16.17;4.78;;;15.20;99.90;;;;;;4978894;28;20233;-63
2022/10/23 11:16:15;;;;;;;15.55;4.63;;;15.20;99.90;;;;;;5006974;28;20481;-63
2022/10/23 11:18:52;;;;;;;9.30;4.20;;;15.20;99.90;;;;;;5000909;28;20201;-63
2022/10/23 11:21:26;;;;;;;7.45;3.90;;;15.20;99.90;;;;;;4976502;28;20197;-62
2022/10/23 11:24:17;;;;;;;12.20;4.57;;;15.30;99.90;;;;;;5008199;28;20847;-63
2022/10/23 11:26:55;;;;;;;8.57;4.28;;;15.30;99.90;;;;;;4973438;28;20202;-62
2022/10/23 11:29:46;;;;;;;14.35;3.72;;;15.30;99.90;;;;;;4995581;28;21030;-63
2022/10/23 11:32:43;;;;;;;8.35;3.50;;;15.40;99.90;;;;;;4986831;28;20252;-63
2022/10/23 11:35:24;;;;;;;6.90;3.80;;;15.30;99.90;;;;;;4953757;28;20343;-63
2022/10/23 11:38:07;;;;;;;8.80;4.00;;;15.30;99.90;;;;;;5007942;28;21248;-63
2022/10/23 11:40:34;;;;;;;4.95;3.90;;;15.30;99.90;;;;;;4997676;28;20224;-63
2022/10/23 11:43:01;;;;;;;5.72;3.65;;;15.40;99.90;;;;;;5006123;28;20228;-63
2022/10/23 11:45:34;;;;;;;9.25;3.80;;;15.40;99.90;;;;;;4980597;28;20222;-63
2022/10/23 11:48:02;;;;;;;11.82;4.32;;;15.40;99.90;;;;;;4991655;28;21096;-63
2022/10/23 11:50:34;;;;;;;14.68;4.32;;;15.40;99.90;;;;;;5008155;28;20272;-63
2022/10/23 11:53:06;;;;;;;6.50;4.13;;;15.50;99.90;;;;;;4945618;28;20229;-63
2022/10/23 11:55:33;;;;;;;10.23;3.80;;;15.50;99.90;;;;;;4997553;28;20692;-63
2022/10/23 11:58:18;;;;;;;13.02;3.92;;;15.50;99.90;;;;;;4984902;28;20225;-63
2022/10/23 12:00:58;;;;;;;9.30;3.60;;;15.50;99.90;;;;;;4990025;28;20287;-63
2022/10/23 12:03:39;;;;;;;7.20;3.50;;;15.50;99.90;;;;;;5013912;28;20220;-63
2022/10/23 12:06:16;;;;;;;8.93;3.35;;;15.50;99.90;;;;;;4956717;28;20323;-63
2022/10/23 12:08:43;;;;;;;6.47;3.80;;;15.50;99.90;;;;;;5011142;28;20201;-62
2022/10/23 12:11:29;;;;;;;19.80;4.35;;;15.50;99.90;;;;;;4984348;28;20229;-62
2022/10/23 12:13:56;;;;;;;11.52;3.85;;;15.50;99.90;;;;;;4994066;28;20226;-62
2022/10/23 12:16:33;;;;;;;12.98;3.58;;;15.50;99.90;;;;;;4963701;28;20461;-63
2022/10/23 12:19:17;;;;;;;6.25;3.63;;;15.50;99.90;;;;;;4993047;28;20216;-62
2022/10/23 12:21:46;;;;;;;13.32;3.92;;;15.50;99.90;;;;;;4955208;28;20687;-64
2022/10/23 12:24:26;;;;;;;7.43;4.72;;;15.50;99.90;;;;;;4985596;28;20987;-63
2022/10/23 12:27:19;;;;;;;15.93;4.03;;;15.60;99.90;;;;;;4966741;28;20201;-63
2022/10/23 12:30:01;;;;;;;17.35;3.75;;;15.60;99.90;;;;;;4995025;28;20225;-63
2022/10/23 12:32:53;;;;;;;13.70;3.70;;;15.60;99.90;;;;;;4967519;28;20702;-62
2022/10/23 12:35:31;;;;;;;11.52;3.78;;;15.70;99.90;;;;;;4999509;28;20713;-63
2022/10/23 12:38:13;;;;;;;12.02;3.17;;;15.70;99.90;;;;;;4958646;28;20233;-63
2022/10/23 12:40:40;;;;;;;7.80;3.63;;;15.80;99.90;;;;;;4983173;28;20290;-63
2022/10/23 12:43:23;;;;;;;9.98;3.58;;;15.80;99.90;;;;;;4966906;28;20225;-63
2022/10/23 12:45:50;;;;;;;5.40;3.15;;;15.80;99.90;;;;;;4987590;28;20234;-63
2022/10/23 12:48:20;;;;;;;5.55;3.17;;;15.80;99.90;;;;;;4995785;28;21318;-64
2022/10/23 12:50:50;;;;;;;15.57;4.32;;;15.80;99.90;;;;;;4976909;28;20222;-63
2022/10/23 12:53:20;;;;;;;8.57;3.28;;;15.80;99.90;;;;;;4953556;28;20339;-63
2022/10/23 12:55:51;;;;;;;18.98;3.70;;;15.80;99.90;;;;;;4984228;28;21369;-63
2022/10/23 12:58:23;;;;;;;9.20;3.42;;;15.80;99.90;;;;;;4989370;28;20218;-63
2022/10/23 13:00:55;;;;;;;7.15;3.10;;;15.80;99.90;;;;;;4987622;28;20217;-65